createdAt,value
2023-04-13T00:01:13.816Z,2.81
2023-04-13T00:03:40.887Z,3.85
2023-04-13T00:06:11.316Z,2.52
2023-04-13T00:08:38.908Z,3.83
2023-04-13T00:11:07.899Z,2.49
2023-04-13T00:13:41.389Z,3.38
2023-04-13T00:16:10.039Z,3.02
2023-04-13T00:18:37.001Z,3.32
2023-04-13T00:21:04.220Z,2.56
2023-04-13T00:23:32.204Z,3.63
2023-04-13T00:26:01.705Z,3.49
2023-04-13T00:28:30.236Z,2.81
2023-04-13T00:30:59.402Z,1.77
2023-04-13T00:33:26.840Z,2.66
2023-04-13T00:35:53.962Z,2.89
2023-04-13T00:38:20.924Z,3.59
2023-04-13T00:40:47.875Z,3.56
2023-04-13T00:43:15.091Z,3.52
2023-04-13T00:45:43.791Z,2.90
2023-04-13T00:48:13.761Z,2.27
2023-04-13T00:50:42.508Z,3.57
2023-04-13T00:53:13.845Z,2.15
2023-04-13T00:55:43.018Z,3.40
2023-04-13T00:58:10.293Z,2.69
2023-04-13T01:00:43.243Z,3.47
2023-04-13T01:03:10.709Z,3.44
2023-04-13T01:05:50.649Z,2.24
2023-04-13T01:08:26.539Z,3.13
2023-04-13T01:11:14.611Z,2.08
2023-04-13T01:13:56.116Z,2.61
2023-04-13T01:16:57.191Z,3.33
2023-04-13T01:19:48.745Z,3.25
2023-04-13T01:22:16.723Z,1.45
2023-04-13T01:25:14.960Z,2.97
2023-04-13T01:28:02.522Z,3.10
2023-04-13T01:30:32.489Z,2.36
2023-04-13T01:33:02.391Z,2.29
2023-04-13T01:35:31.343Z,3.04
2023-04-13T01:37:59.178Z,1.82
2023-04-13T01:40:29.246Z,3.04
2023-04-13T01:42:58.172Z,2.32
2023-04-13T01:45:37.078Z,2.96
2023-04-13T01:48:24.288Z,2.97
2023-04-13T01:51:31.586Z,2.17
2023-04-13T01:54:13.789Z,2.90
2023-04-13T01:56:45.090Z,1.90
2023-04-13T01:59:12.549Z,2.60
2023-04-13T02:01:43.323Z,0.77
2023-04-13T02:04:10.421Z,1.85
2023-04-13T02:06:41.223Z,2.12
2023-04-13T02:09:10.089Z,1.77
2023-04-13T02:11:38.211Z,1.90
2023-04-13T02:14:06.687Z,1.43
2023-04-13T02:16:34.670Z,1.87
2023-04-13T02:19:01.866Z,1.90
2023-04-13T02:21:28.924Z,1.56
2023-04-13T02:23:56.118Z,1.93
2023-04-13T02:26:23.731Z,0.92
2023-04-13T02:28:51.602Z,2.58
2023-04-13T02:31:20.642Z,0.99
2023-04-13T02:33:48.030Z,0.65
2023-04-13T02:36:17.620Z,1.50
2023-04-13T02:38:58.296Z,2.58
2023-04-13T02:41:29.887Z,1.71
2023-04-13T02:43:57.923Z,0.87
2023-04-13T02:46:28.459Z,1.87
2023-04-13T02:49:12.076Z,2.57
2023-04-13T02:51:48.889Z,1.40
2023-04-13T02:54:17.164Z,1.92
2023-04-13T02:56:47.324Z,0.46
2023-04-13T02:59:16.713Z,2.56
2023-04-13T03:01:46.012Z,1.39
2023-04-13T03:04:15.143Z,0.55
2023-04-13T03:06:44.444Z,1.82
2023-04-13T03:09:12.177Z,1.63
2023-04-13T03:11:45.353Z,1.59
2023-04-13T03:14:22.975Z,1.58
2023-04-13T03:16:57.876Z,0.97
2023-04-13T03:19:33.564Z,0.39
2023-04-13T03:22:00.548Z,1.61
2023-04-13T03:24:29.075Z,0.49
2023-04-13T03:26:59.718Z,0.45
2023-04-13T03:29:33.774Z,1.56
2023-04-13T03:32:01.086Z,1.71
2023-04-13T03:34:31.913Z,2.43
2023-04-13T03:37:02.327Z,0.44
2023-04-13T03:39:30.333Z,0.53
2023-04-13T03:41:58.238Z,2.25
2023-04-13T03:44:26.384Z,0.33
2023-04-13T03:46:53.886Z,1.59
2023-04-13T03:49:28.615Z,1.53
2023-04-13T03:51:55.815Z,0.25
2023-04-13T03:54:23.486Z,1.09
2023-04-13T03:56:52.000Z,1.39
2023-04-13T03:59:19.127Z,0.24
2023-04-13T04:01:47.983Z,0.39
2023-04-13T04:04:15.346Z,1.30
2023-04-13T04:06:42.568Z,1.48
2023-04-13T04:09:14.469Z,0.66
2023-04-13T04:11:45.678Z,2.24
2023-04-13T04:14:15.431Z,0.22
2023-04-13T04:16:51.297Z,0.65
2023-04-13T04:19:19.159Z,2.21
2023-04-13T04:21:47.648Z,1.45
2023-04-13T04:24:23.033Z,1.50
2023-04-13T04:26:55.810Z,0.51
2023-04-13T04:29:34.374Z,0.20
2023-04-13T04:32:11.141Z,1.34
2023-04-13T04:34:41.065Z,2.31
2023-04-13T04:37:20.426Z,1.30
2023-04-13T04:40:00.354Z,0.07
2023-04-13T04:42:27.906Z,1.79
2023-04-13T04:44:57.334Z,0.96
2023-04-13T04:47:30.339Z,2.38
2023-04-13T04:50:11.029Z,0.52
2023-04-13T04:52:40.911Z,0.48
2023-04-13T04:55:09.561Z,0.97
2023-04-13T04:57:39.526Z,0.55
2023-04-13T05:00:15.684Z,2.66
2023-04-13T05:02:51.050Z,1.56
2023-04-13T05:05:18.788Z,0.71
2023-04-13T05:07:46.264Z,2.10
2023-04-13T05:10:14.454Z,0.79
2023-04-13T05:12:47.506Z,2.01
2023-04-13T05:15:14.507Z,2.46
2023-04-13T05:17:42.065Z,1.01
2023-04-13T05:20:09.640Z,1.66
2023-04-13T05:22:45.672Z,1.25
2023-04-13T05:25:13.398Z,2.00
2023-04-13T05:27:41.117Z,2.49
2023-04-13T05:30:09.736Z,2.85
2023-04-13T05:32:39.381Z,1.72
2023-04-13T05:35:08.024Z,2.93
2023-04-13T05:37:35.234Z,3.10
2023-04-13T05:40:03.031Z,3.14
2023-04-13T05:42:33.189Z,2.53
2023-04-13T05:45:01.595Z,2.47
2023-04-13T05:47:29.763Z,3.57
2023-04-13T05:50:03.011Z,3.83
2023-04-13T05:52:31.244Z,3.88
2023-04-13T05:54:58.218Z,4.70
2023-04-13T05:57:26.246Z,4.04
2023-04-13T05:59:55.460Z,4.23
2023-04-13T06:02:26.959Z,5.03
2023-04-13T06:04:55.076Z,4.12
2023-04-13T06:07:26.227Z,5.08
2023-04-13T06:09:53.099Z,4.62
2023-04-13T06:12:21.838Z,5.39
2023-04-13T06:14:48.742Z,5.58
2023-04-13T06:17:15.704Z,5.67
2023-04-13T06:19:42.767Z,5.87
2023-04-13T06:22:09.739Z,5.76
2023-04-13T06:24:39.396Z,5.80
2023-04-13T06:27:08.692Z,6.04
2023-04-13T06:29:36.160Z,6.35
2023-04-13T06:32:08.228Z,5.89
2023-04-13T06:34:36.080Z,6.22
2023-04-13T06:37:05.306Z,6.41
2023-04-13T06:39:41.122Z,5.73
2023-04-13T06:42:08.977Z,6.47
2023-04-13T06:44:54.095Z,7.04
2023-04-13T06:47:22.959Z,7.13
2023-04-13T06:49:50.273Z,6.77
2023-04-13T06:52:17.859Z,6.15
2023-04-13T06:54:44.826Z,6.07
2023-04-13T06:57:24.132Z,6.43
2023-04-13T06:59:51.273Z,6.30
2023-04-13T07:02:18.692Z,7.87
2023-04-13T07:04:46.067Z,6.75
2023-04-13T07:07:13.223Z,7.28
2023-04-13T07:09:40.352Z,7.39
2023-04-13T07:12:08.026Z,7.66
2023-04-13T07:14:36.570Z,7.57
2023-04-13T07:17:04.890Z,7.75
2023-04-13T07:19:34.011Z,7.99
2023-04-13T07:22:02.240Z,8.81
2023-04-13T07:24:31.259Z,7.06
2023-04-13T07:27:01.526Z,7.90
2023-04-13T07:29:28.615Z,8.44
2023-04-13T07:32:02.616Z,9.19
2023-04-13T07:34:32.050Z,8.75
2023-04-13T07:36:59.829Z,8.50
2023-04-13T07:39:27.998Z,8.78
2023-04-13T07:41:57.287Z,8.65
2023-04-13T07:44:35.900Z,9.66
2023-04-13T07:47:03.375Z,9.09
2023-04-13T07:49:32.199Z,8.52
2023-04-13T07:52:00.424Z,9.00
2023-04-13T07:54:31.054Z,9.44
2023-04-13T07:56:58.668Z,9.55
2023-04-13T07:59:29.840Z,10.09
2023-04-13T08:01:58.192Z,9.87
2023-04-13T08:04:26.366Z,9.93
2023-04-13T08:06:54.209Z,10.63
2023-04-13T08:09:21.478Z,9.79
2023-04-13T08:11:49.955Z,10.82
2023-04-13T08:14:17.514Z,10.37
2023-04-13T08:16:47.322Z,11.21
2023-04-13T08:19:14.431Z,11.33
2023-04-13T08:21:47.466Z,10.50
2023-04-13T08:24:14.383Z,10.48
2023-04-13T08:26:41.933Z,10.77
2023-04-13T08:29:11.047Z,11.16
2023-04-13T08:31:38.637Z,10.31
2023-04-13T08:34:07.167Z,10.45
2023-04-13T08:36:34.167Z,9.92
2023-04-13T08:39:10.428Z,11.99
2023-04-13T08:41:44.313Z,10.15
2023-04-13T08:44:13.753Z,10.80
2023-04-13T08:46:47.573Z,11.35
2023-04-13T08:49:18.838Z,10.84
2023-04-13T08:52:16.869Z,10.98
2023-04-13T08:54:47.831Z,11.21
2023-04-13T08:57:26.073Z,11.41
2023-04-13T08:59:53.666Z,12.24
2023-04-13T09:02:26.710Z,12.95
2023-04-13T09:05:01.078Z,11.42
2023-04-13T09:07:32.717Z,12.61
2023-04-13T09:10:09.634Z,11.56
2023-04-13T09:12:36.952Z,12.01
2023-04-13T09:15:07.689Z,12.80
2023-04-13T09:17:44.261Z,12.41
2023-04-13T09:20:20.694Z,12.90
2023-04-13T09:22:48.595Z,13.00
2023-04-13T09:25:27.476Z,12.51
2023-04-13T09:27:55.307Z,13.47
2023-04-13T09:30:24.303Z,12.48
2023-04-13T09:33:10.726Z,13.70
2023-04-13T09:35:38.525Z,12.78
2023-04-13T09:38:06.395Z,13.63
2023-04-13T09:40:33.380Z,13.96
2023-04-13T09:43:02.869Z,13.06
2023-04-13T09:45:37.893Z,14.18
2023-04-13T09:48:07.150Z,13.18
2023-04-13T09:50:36.857Z,13.47
2023-04-13T09:53:10.834Z,14.30
2023-04-13T09:55:39.014Z,13.88
2023-04-13T09:58:25.526Z,14.21
2023-04-13T10:00:53.564Z,13.37
2023-04-13T10:03:22.611Z,15.14
2023-04-13T10:05:59.511Z,13.76
2023-04-13T10:08:37.625Z,14.32
2023-04-13T10:11:11.953Z,13.75
2023-04-13T10:13:52.299Z,14.93
2023-04-13T10:16:46.635Z,15.61
2023-04-13T10:19:17.021Z,14.52
2023-04-13T10:21:47.830Z,15.15
2023-04-13T10:24:15.941Z,14.16
2023-04-13T10:26:45.936Z,14.18
2023-04-13T10:29:14.935Z,14.29
2023-04-13T10:31:47.949Z,14.69
2023-04-13T10:34:25.782Z,15.99
2023-04-13T10:36:58.684Z,14.51
2023-04-13T10:39:27.980Z,14.67
2023-04-13T10:42:06.533Z,15.89
2023-04-13T10:44:47.939Z,14.96
2023-04-13T10:47:16.860Z,16.64
2023-04-13T10:49:46.820Z,15.14
2023-04-13T10:52:22.813Z,16.60
2023-04-13T10:54:50.778Z,15.37
2023-04-13T10:57:17.911Z,15.14
2023-04-13T10:59:58.644Z,15.83
2023-04-13T11:02:34.169Z,15.72
2023-04-13T11:05:02.468Z,14.60
2023-04-13T11:07:30.173Z,14.27
2023-04-13T11:10:03.527Z,14.42
2023-04-13T11:12:31.494Z,16.07
2023-04-13T11:14:59.576Z,14.45
2023-04-13T11:17:26.872Z,14.36
2023-04-13T11:19:55.746Z,15.57
2023-04-13T11:22:25.390Z,14.38
2023-04-13T11:24:52.948Z,15.66
2023-04-13T11:27:24.514Z,15.36
2023-04-13T11:29:58.970Z,15.36
2023-04-13T11:32:26.477Z,15.66
2023-04-13T11:34:53.836Z,14.45
2023-04-13T11:37:21.868Z,15.44
2023-04-13T11:39:50.709Z,14.07
2023-04-13T11:42:17.869Z,14.54
2023-04-13T11:44:46.528Z,14.50
2023-04-13T11:47:17.331Z,14.29
2023-04-13T11:49:52.795Z,13.82
2023-04-13T11:52:19.986Z,15.91
2023-04-13T11:54:49.231Z,15.15
2023-04-13T11:57:18.268Z,15.77
2023-04-13T11:59:47.702Z,15.21
2023-04-13T12:02:21.904Z,15.52
2023-04-13T12:04:50.468Z,15.26
2023-04-13T12:07:18.613Z,13.95
2023-04-13T12:15:10.586Z,15.02
2023-04-13T12:17:49.463Z,14.88
2023-04-13T12:20:17.517Z,15.26
2023-04-13T12:22:55.118Z,15.94
2023-04-13T12:25:35.524Z,14.35
2023-04-13T12:28:04.055Z,14.57
2023-04-13T12:30:32.974Z,14.77
2023-04-13T12:33:00.119Z,14.34
2023-04-13T12:35:27.473Z,15.65
2023-04-13T12:37:54.761Z,14.37
2023-04-13T12:40:21.905Z,14.61
2023-04-13T12:42:49.608Z,15.86
2023-04-13T12:45:17.094Z,14.98
2023-04-13T12:47:44.695Z,15.94
2023-04-13T12:50:12.595Z,14.81
2023-04-13T12:52:42.595Z,15.23
2023-04-13T12:55:10.306Z,14.89
2023-04-13T12:57:37.938Z,16.02
2023-04-13T13:00:10.548Z,15.44
2023-04-13T13:02:38.414Z,16.76
2023-04-13T13:05:06.063Z,15.21
2023-04-13T13:07:33.158Z,15.06
2023-04-13T13:10:02.030Z,15.81
2023-04-13T13:12:30.445Z,14.78
2023-04-13T13:14:58.699Z,14.69
2023-04-13T13:17:25.880Z,15.16
2023-04-13T13:19:53.132Z,15.12
2023-04-13T13:22:20.627Z,15.24
2023-04-13T13:24:47.686Z,15.18
2023-04-13T13:27:48.620Z,15.73
2023-04-13T13:30:04.850Z,15.37
2023-04-13T13:32:32.057Z,16.11
2023-04-13T13:34:59.373Z,16.23
2023-04-13T13:37:26.523Z,15.42
2023-04-13T13:39:54.161Z,16.17
2023-04-13T13:42:21.716Z,15.77
2023-04-13T13:44:48.987Z,16.15
2023-04-13T13:47:16.202Z,16.15
2023-04-13T13:49:51.832Z,14.94
2023-04-13T13:52:33.782Z,15.16
2023-04-13T13:55:03.621Z,14.62
2023-04-13T13:57:31.156Z,15.58
2023-04-13T13:59:58.307Z,15.64
2023-04-13T14:02:25.482Z,14.80
2023-04-13T14:04:52.673Z,14.98
2023-04-13T14:07:19.780Z,15.81
2023-04-13T14:09:47.272Z,16.60
2023-04-13T14:12:14.395Z,15.94
2023-04-13T14:14:41.494Z,15.60
2023-04-13T14:17:08.722Z,14.66
2023-04-13T14:19:35.872Z,14.54
2023-04-13T14:22:03.108Z,16.22
2023-04-13T14:24:30.173Z,15.43
2023-04-13T14:26:57.243Z,14.33
2023-04-13T14:29:24.431Z,15.96
2023-04-13T14:31:52.708Z,13.97
2023-04-13T14:36:49.128Z,15.61
2023-04-13T14:39:17.733Z,14.90
2023-04-13T14:41:45.791Z,14.72
2023-04-13T14:44:12.917Z,13.66
2023-04-13T14:46:40.050Z,14.17
2023-04-13T14:49:07.174Z,14.89
2023-04-13T14:51:34.650Z,14.80
2023-04-13T14:54:01.723Z,13.76
2023-04-13T14:56:28.898Z,15.29
2023-04-13T14:58:56.177Z,14.69
2023-04-13T15:01:25.046Z,13.85
2023-04-13T15:03:55.278Z,14.41
2023-04-13T15:06:22.738Z,15.34
2023-04-13T15:08:49.724Z,14.41
2023-04-13T15:11:16.881Z,14.19
2023-04-13T15:13:43.954Z,13.59
2023-04-13T15:16:11.841Z,12.69
2023-04-13T15:18:39.182Z,13.78
2023-04-13T15:21:06.469Z,13.70
2023-04-13T15:23:33.670Z,14.42
2023-04-13T15:26:03.679Z,12.49
2023-04-13T15:28:30.937Z,13.63
2023-04-13T15:30:57.955Z,12.08
2023-04-13T15:33:25.107Z,12.02
2023-04-13T15:35:52.759Z,12.96
2023-04-13T15:38:20.111Z,13.10
2023-04-13T15:40:47.371Z,13.53
2023-04-13T15:43:14.787Z,12.81
2023-04-13T15:45:42.142Z,11.19
2023-04-13T15:48:11.333Z,13.30
2023-04-13T15:50:38.581Z,11.26
2023-04-13T15:53:06.013Z,12.12
2023-04-13T15:55:33.529Z,12.02
2023-04-13T15:58:00.710Z,11.36
2023-04-13T16:00:28.266Z,11.33
2023-04-13T16:02:56.455Z,11.15
2023-04-13T16:05:23.628Z,12.38
2023-04-13T16:07:50.934Z,11.24
2023-04-13T16:10:18.843Z,12.03
2023-04-13T16:12:46.113Z,12.16
2023-04-13T16:15:13.394Z,10.99
2023-04-13T16:17:44.169Z,11.82
2023-04-13T16:20:14.517Z,12.74
2023-04-13T16:22:43.552Z,11.72
2023-04-13T16:25:11.629Z,10.52
2023-04-13T16:27:38.822Z,12.52
2023-04-13T16:30:30.563Z,12.56
2023-04-13T16:32:57.609Z,12.52
2023-04-13T16:35:25.198Z,12.46
2023-04-13T16:37:52.171Z,11.62
2023-04-13T16:40:19.271Z,11.66
2023-04-13T16:42:46.416Z,10.57
2023-04-13T16:45:15.071Z,10.91
2023-04-13T16:47:42.674Z,11.46
2023-04-13T16:50:11.313Z,11.15
2023-04-13T16:52:40.093Z,11.29
2023-04-13T16:55:08.027Z,11.13
2023-04-13T16:57:35.077Z,11.70
2023-04-13T17:00:07.248Z,10.52
2023-04-13T17:02:34.509Z,9.75
2023-04-13T17:05:01.624Z,11.31
2023-04-13T17:07:28.636Z,10.74
2023-04-13T17:09:55.983Z,10.50
2023-04-13T17:12:23.182Z,10.88
2023-04-13T17:14:50.320Z,10.15
2023-04-13T17:17:17.289Z,10.00
2023-04-13T17:19:44.433Z,11.31
2023-04-13T17:22:11.780Z,10.60
2023-04-13T17:24:38.956Z,10.37
2023-04-13T17:27:06.755Z,11.32
2023-04-13T17:29:36.421Z,9.99
2023-04-13T17:32:04.264Z,9.68
2023-04-13T17:34:31.646Z,9.33
2023-04-13T17:37:02.240Z,11.22
2023-04-13T17:39:29.479Z,10.55
2023-04-13T17:41:56.799Z,10.59
2023-04-13T17:44:23.927Z,10.63
2023-04-13T17:46:52.868Z,9.41
2023-04-13T17:49:21.110Z,8.80
2023-04-13T17:51:49.188Z,10.14
2023-04-13T17:54:16.187Z,9.36
2023-04-13T17:56:43.282Z,10.64
2023-04-13T17:59:16.488Z,9.61
2023-04-13T18:01:43.819Z,9.31
2023-04-13T18:04:12.137Z,10.46
2023-04-13T18:06:39.713Z,9.96
2023-04-13T18:09:07.312Z,9.10
2023-04-13T18:11:34.586Z,10.33
2023-04-13T18:14:04.974Z,9.01
2023-04-13T18:16:32.014Z,10.44
2023-04-13T18:18:59.245Z,10.92
2023-04-13T18:21:26.560Z,10.86
2023-04-13T18:23:54.113Z,10.55
2023-04-13T18:26:22.697Z,11.21
2023-04-13T18:28:49.628Z,10.84
2023-04-13T18:31:16.726Z,10.67
2023-04-13T18:33:44.705Z,10.90
2023-04-13T18:36:18.668Z,10.43
2023-04-13T18:38:46.238Z,10.76
2023-04-13T18:41:13.634Z,10.83
2023-04-13T18:43:40.982Z,11.41
2023-04-13T18:46:08.437Z,10.55
2023-04-13T18:48:36.170Z,10.87
2023-04-13T18:51:03.849Z,10.18
2023-04-13T18:53:31.347Z,10.66
2023-04-13T18:55:58.840Z,9.39
2023-04-13T18:58:26.573Z,10.76
2023-04-13T19:00:53.675Z,9.78
2023-04-13T19:03:20.911Z,11.33
2023-04-13T19:05:48.053Z,9.64
2023-04-13T19:08:15.532Z,11.19
2023-04-13T19:10:42.959Z,9.65
2023-04-13T19:13:10.271Z,10.82
2023-04-13T19:15:37.323Z,10.00
2023-04-13T19:18:04.570Z,11.00
2023-04-13T19:20:31.749Z,10.60
2023-04-13T19:22:58.753Z,10.85
2023-04-13T19:25:25.910Z,9.79
2023-04-13T19:27:52.883Z,11.28
2023-04-13T19:30:20.023Z,9.71
2023-04-13T19:32:49.100Z,10.58
2023-04-13T19:35:17.089Z,11.43
2023-04-13T19:37:44.069Z,10.72
2023-04-13T19:40:14.115Z,9.76
2023-04-13T19:42:43.175Z,10.00
2023-04-13T19:45:11.636Z,10.28
2023-04-13T19:47:40.094Z,11.18
2023-04-13T19:50:09.295Z,10.49
2023-04-13T19:52:36.515Z,11.04
2023-04-13T19:55:03.816Z,10.99
2023-04-13T19:57:30.778Z,10.49
2023-04-13T19:59:58.082Z,10.23
2023-04-13T20:02:25.302Z,10.26
2023-04-13T20:04:52.545Z,10.10
2023-04-13T20:07:19.709Z,9.03
2023-04-13T20:09:46.793Z,9.10
2023-04-13T20:12:13.907Z,9.20
2023-04-13T20:14:42.273Z,10.16
2023-04-13T20:17:09.879Z,10.82
2023-04-13T20:19:36.970Z,10.09
2023-04-13T20:22:04.908Z,9.29
2023-04-13T20:24:32.239Z,10.58
2023-04-13T20:26:59.220Z,9.32
2023-04-13T20:29:27.660Z,9.23
2023-04-13T20:31:55.035Z,9.54
2023-04-13T20:34:22.295Z,8.94
2023-04-13T20:36:49.396Z,8.76
2023-04-13T20:39:25.536Z,8.73
2023-04-13T20:41:55.965Z,10.04
2023-04-13T20:44:27.515Z,8.59
2023-04-13T20:46:54.979Z,10.25
2023-04-13T20:49:23.536Z,8.39
2023-04-13T20:51:56.542Z,8.47
2023-04-13T20:54:23.783Z,10.15
2023-04-13T20:56:50.815Z,9.68
2023-04-13T20:59:18.568Z,10.18
2023-04-13T21:01:46.178Z,10.03
2023-04-13T21:04:13.280Z,10.08
2023-04-13T21:06:40.746Z,10.03
2023-04-13T21:09:08.870Z,9.20
2023-04-13T21:11:36.182Z,9.29
2023-04-13T21:14:04.099Z,9.07
2023-04-13T21:16:31.597Z,9.28
2023-04-13T21:18:58.536Z,8.17
2023-04-13T21:21:27.859Z,9.19
2023-04-13T21:23:54.969Z,8.35
2023-04-13T21:26:21.919Z,10.07
2023-04-13T21:28:48.982Z,9.70
2023-04-13T21:31:16.950Z,9.94
2023-04-13T21:33:44.046Z,9.09
2023-04-13T21:38:41.915Z,8.72
2023-04-13T21:41:19.495Z,9.77
2023-04-13T21:43:47.139Z,9.62
2023-04-13T21:46:16.041Z,9.65
2023-04-13T21:48:42.970Z,9.31
2023-04-13T21:51:10.084Z,9.27
2023-04-13T21:53:37.985Z,8.34
2023-04-13T21:56:05.616Z,8.77
2023-04-13T21:58:41.150Z,8.54
2023-04-13T22:01:08.813Z,9.17
2023-04-13T22:03:40.046Z,7.78
2023-04-13T22:06:08.969Z,8.76
2023-04-13T22:08:35.992Z,7.76
2023-04-13T22:11:03.193Z,7.79
2023-04-13T22:13:30.702Z,7.44
2023-04-13T22:15:58.867Z,7.61
2023-04-13T22:18:26.853Z,9.31
2023-04-13T22:20:53.851Z,9.34
2023-04-13T22:23:20.891Z,8.41
2023-04-13T22:26:01.613Z,8.22
2023-04-13T22:28:30.529Z,7.34
2023-04-13T22:30:58.108Z,8.67
2023-04-13T22:33:25.025Z,7.38
2023-04-13T22:35:55.218Z,7.43
2023-04-13T22:38:22.136Z,7.31
2023-04-13T22:40:49.152Z,7.26
2023-04-13T22:43:16.421Z,8.06
2023-04-13T22:45:43.408Z,8.38
2023-04-13T22:48:10.616Z,7.30
2023-04-13T22:50:38.172Z,8.55
2023-04-13T22:53:06.161Z,7.26
2023-04-13T22:55:33.252Z,9.17
2023-04-13T22:58:01.287Z,8.32
2023-04-13T23:00:28.511Z,7.97
2023-04-13T23:02:56.807Z,9.14
2023-04-13T23:05:24.238Z,7.75
2023-04-13T23:07:51.176Z,7.67
2023-04-13T23:10:18.294Z,8.97
2023-04-13T23:12:46.011Z,7.27
2023-04-13T23:15:14.024Z,7.91
2023-04-13T23:17:41.113Z,8.32
2023-04-13T23:20:08.444Z,8.13
2023-04-13T23:22:35.456Z,7.97
2023-04-13T23:25:02.636Z,8.29
2023-04-13T23:27:29.649Z,7.77
2023-04-13T23:29:56.708Z,8.78
2023-04-13T23:32:24.313Z,8.22
2023-04-13T23:34:51.515Z,8.40
2023-04-13T23:37:18.526Z,7.38
2023-04-13T23:39:45.435Z,7.19
2023-04-13T23:42:19.972Z,8.31
2023-04-13T23:44:46.866Z,8.28
2023-04-13T23:47:13.871Z,7.98
2023-04-13T23:49:41.783Z,8.05
2023-04-13T23:52:10.027Z,8.24
2023-04-13T23:54:36.977Z,8.54
2023-04-13T23:57:04.003Z,8.74
2023-04-13T23:59:31.281Z,7.37
